N4RS KMDW-KHPN
Flight info
| Callsign | N4RS |
|---|---|
| Flight time | 1h 45m |
| Altitude | 41000 |
| Route | LEWKE GIJ EVOTE NELLS KEEHO JHW MEMMS DANZI VALRE1 |
| Aircraft | E55P/M-SBDGRW/LB2 |
Departure
| Time | 2026-04-25 22:33 |
|---|---|
| Airport | Chicago Midway International Airport (KMDW) |
Arrival
| Time | 2026-04-26 00:18 |
|---|---|
| Airport | Westchester County Airport (KHPN) |
| Time | Latitude | Longitude | Altitude | Speed | Heading |
|---|---|---|---|---|---|
| 2026-04-25 21:55 | 41.78117 | -87.75326 | 624 ft | 0 kts | 223° |
| 2026-04-25 22:29 | 41.78114 | -87.75334 | 624 ft | 2 kts | 251° |
| 2026-04-25 22:30 | 41.78149 | -87.75360 | 624 ft | 3 kts | 335° |
| 2026-04-25 22:30 | 41.78169 | -87.75395 | 624 ft | 5 kts | 271° |
| 2026-04-25 22:30 | 41.78146 | -87.75438 | 624 ft | 7 kts | 223° |
| 2026-04-25 22:30 | 41.78118 | -87.75474 | 624 ft | 9 kts | 224° |
| 2026-04-25 22:31 | 41.78051 | -87.75558 | 624 ft | 10 kts | 223° |
| 2026-04-25 22:31 | 41.77999 | -87.75624 | 624 ft | 9 kts | 224° |
| 2026-04-25 22:31 | 41.77995 | -87.75681 | 624 ft | 6 kts | 309° |
| 2026-04-25 22:31 | 41.78027 | -87.75729 | 624 ft | 6 kts | 312° |
| 2026-04-25 22:32 | 41.78062 | -87.75748 | 624 ft | 5 kts | 33° |
| 2026-04-25 22:32 | 41.78080 | -87.75725 | 624 ft | 0 kts | 45° |
| 2026-04-25 22:33 | 41.78111 | -87.75684 | 624 ft | 29 kts | 43° |
| 2026-04-25 22:33 | 41.78463 | -87.75238 | 624 ft | 107 kts | 44° |
| 2026-04-25 22:33 | 41.79086 | -87.74460 | 1044 ft | 131 kts | 44° |
| 2026-04-25 22:33 | 41.79633 | -87.73388 | 1528 ft | 158 kts | 73° |
| 2026-04-25 22:34 | 41.79721 | -87.71839 | 2026 ft | 178 kts | 86° |
| 2026-04-25 22:34 | 41.79751 | -87.70084 | 2425 ft | 194 kts | 85° |
| 2026-04-25 22:34 | 41.79784 | -87.68281 | 2751 ft | 193 kts | 86° |
| 2026-04-25 22:34 | 41.79809 | -87.66499 | 2956 ft | 190 kts | 85° |
| 2026-04-25 22:35 | 41.79843 | -87.64730 | 2971 ft | 189 kts | 85° |
| 2026-04-25 22:35 | 41.79871 | -87.62989 | 2999 ft | 190 kts | 85° |
| 2026-04-25 22:35 | 41.79901 | -87.61135 | 3218 ft | 205 kts | 86° |
| 2026-04-25 22:35 | 41.79908 | -87.59260 | 3820 ft | 210 kts | 87° |
| 2026-04-25 22:36 | 41.79913 | -87.57256 | 4506 ft | 226 kts | 86° |
| 2026-04-25 22:36 | 41.79945 | -87.55107 | 5219 ft | 239 kts | 86° |
| 2026-04-25 22:36 | 41.79984 | -87.52850 | 6029 ft | 247 kts | 86° |
| 2026-04-25 22:36 | 41.80042 | -87.50545 | 6804 ft | 255 kts | 86° |
| 2026-04-25 22:37 | 41.80100 | -87.48123 | 7568 ft | 264 kts | 85° |
| 2026-04-25 22:37 | 41.80177 | -87.45660 | 8318 ft | 271 kts | 85° |
| 2026-04-25 22:37 | 41.80255 | -87.43119 | 9082 ft | 278 kts | 85° |
| 2026-04-25 22:37 | 41.80244 | -87.40545 | 9866 ft | 283 kts | 92° |
| 2026-04-25 22:38 | 41.80064 | -87.37891 | 10672 ft | 287 kts | 96° |
| 2026-04-25 22:38 | 41.79773 | -87.35290 | 11489 ft | 288 kts | 97° |
| 2026-04-25 22:38 | 41.79454 | -87.32612 | 12288 ft | 291 kts | 99° |
| 2026-04-25 22:38 | 41.79127 | -87.29949 | 13013 ft | 296 kts | 99° |
| 2026-04-25 22:39 | 41.78794 | -87.27248 | 13752 ft | 300 kts | 99° |
| 2026-04-25 22:39 | 41.78452 | -87.24483 | 14521 ft | 302 kts | 99° |
| 2026-04-25 22:39 | 41.78110 | -87.21720 | 15388 ft | 301 kts | 100° |
| 2026-04-25 22:39 | 41.77774 | -87.19003 | 16251 ft | 299 kts | 100° |
| 2026-04-25 22:40 | 41.77438 | -87.16295 | 17117 ft | 297 kts | 100° |
| 2026-04-25 22:40 | 41.77101 | -87.13593 | 17949 ft | 295 kts | 101° |
| 2026-04-25 22:40 | 41.76765 | -87.10893 | 18738 ft | 295 kts | 100° |
| 2026-04-25 22:40 | 41.76423 | -87.08196 | 19475 ft | 296 kts | 100° |
| 2026-04-25 22:41 | 41.76173 | -87.05484 | 20165 ft | 298 kts | 90° |
| 2026-04-25 22:41 | 41.76231 | -87.02735 | 20843 ft | 300 kts | 89° |
| 2026-04-25 22:41 | 41.76267 | -86.99922 | 21476 ft | 304 kts | 89° |
| 2026-04-25 22:41 | 41.76299 | -86.97092 | 22138 ft | 307 kts | 89° |
| 2026-04-25 22:42 | 41.76329 | -86.94233 | 22773 ft | 310 kts | 89° |
| 2026-04-25 22:42 | 41.76362 | -86.91348 | 23344 ft | 316 kts | 88° |
| 2026-04-25 22:42 | 41.76396 | -86.88371 | 23926 ft | 320 kts | 88° |
| 2026-04-25 22:42 | 41.76428 | -86.85394 | 24501 ft | 324 kts | 88° |
| 2026-04-25 22:43 | 41.76458 | -86.82385 | 25071 ft | 328 kts | 88° |
| 2026-04-25 22:43 | 41.76488 | -86.79323 | 25588 ft | 333 kts | 87° |
| 2026-04-25 22:43 | 41.76520 | -86.76183 | 26103 ft | 338 kts | 87° |
| 2026-04-25 22:43 | 41.76550 | -86.73043 | 26624 ft | 341 kts | 87° |
| 2026-04-25 22:44 | 41.76579 | -86.69868 | 27184 ft | 344 kts | 87° |
| 2026-04-25 22:44 | 41.76606 | -86.66687 | 27697 ft | 347 kts | 86° |
| 2026-04-25 22:44 | 41.76635 | -86.63419 | 28159 ft | 352 kts | 86° |
| 2026-04-25 22:44 | 41.76662 | -86.60154 | 28597 ft | 357 kts | 86° |
| 2026-04-25 22:45 | 41.76692 | -86.56795 | 29029 ft | 362 kts | 86° |
| 2026-04-25 22:45 | 41.76719 | -86.53457 | 29465 ft | 366 kts | 86° |
| 2026-04-25 22:45 | 41.76745 | -86.50030 | 29881 ft | 371 kts | 87° |
| 2026-04-25 22:45 | 41.76769 | -86.46583 | 30313 ft | 374 kts | 87° |
| 2026-04-25 22:46 | 41.76795 | -86.43102 | 30846 ft | 375 kts | 87° |
| 2026-04-25 22:46 | 41.76816 | -86.39603 | 31423 ft | 374 kts | 87° |
| 2026-04-25 22:46 | 41.76837 | -86.36150 | 31984 ft | 374 kts | 87° |
| 2026-04-25 22:46 | 41.76860 | -86.32686 | 32530 ft | 373 kts | 86° |
| 2026-04-25 22:47 | 41.77270 | -86.29324 | 33030 ft | 369 kts | 73° |
| 2026-04-25 22:47 | 41.77869 | -86.25975 | 33558 ft | 369 kts | 75° |
| 2026-04-25 22:47 | 41.78452 | -86.22629 | 34054 ft | 370 kts | 75° |
| 2026-04-25 22:47 | 41.79031 | -86.19252 | 34523 ft | 370 kts | 75° |
| 2026-04-25 22:48 | 41.79612 | -86.15862 | 34972 ft | 370 kts | 75° |
| 2026-04-25 22:48 | 41.80190 | -86.12503 | 35380 ft | 369 kts | 75° |
| 2026-04-25 22:48 | 41.80759 | -86.09165 | 35762 ft | 370 kts | 75° |
| 2026-04-25 22:48 | 41.81334 | -86.05792 | 36141 ft | 370 kts | 75° |
| 2026-04-25 22:49 | 41.81904 | -86.02454 | 36495 ft | 370 kts | 75° |
| 2026-04-25 22:49 | 41.82478 | -85.99070 | 36941 ft | 370 kts | 75° |
| 2026-04-25 22:49 | 41.83047 | -85.95712 | 37387 ft | 370 kts | 76° |
| 2026-04-25 22:49 | 41.83617 | -85.92351 | 37786 ft | 370 kts | 76° |
| 2026-04-25 22:50 | 41.84180 | -85.89011 | 38141 ft | 370 kts | 76° |
| 2026-04-25 22:50 | 41.84745 | -85.85659 | 38511 ft | 370 kts | 76° |
| 2026-04-25 22:50 | 41.85312 | -85.82297 | 38868 ft | 370 kts | 76° |
| 2026-04-25 22:50 | 41.85880 | -85.78913 | 39243 ft | 370 kts | 77° |
| 2026-04-25 22:51 | 41.86442 | -85.75558 | 39596 ft | 370 kts | 77° |
| 2026-04-25 22:51 | 41.87000 | -85.72210 | 39897 ft | 370 kts | 77° |
| 2026-04-25 22:51 | 41.87556 | -85.68870 | 40167 ft | 370 kts | 77° |
| 2026-04-25 22:51 | 41.88118 | -85.65497 | 40405 ft | 372 kts | 77° |
| 2026-04-25 22:52 | 41.88680 | -85.62112 | 40667 ft | 372 kts | 77° |
| 2026-04-25 22:52 | 41.89242 | -85.58733 | 40943 ft | 372 kts | 77° |
| 2026-04-25 22:52 | 41.90184 | -85.53040 | 41018 ft | 385 kts | 77° |
| 2026-04-25 22:53 | 41.90971 | -85.48274 | 41027 ft | 398 kts | 77° |
| 2026-04-25 22:53 | 41.91576 | -85.44597 | 41031 ft | 407 kts | 77° |
| 2026-04-25 22:53 | 41.92818 | -85.37025 | 41012 ft | 424 kts | 77° |
| 2026-04-25 22:54 | 41.94099 | -85.29188 | 40998 ft | 438 kts | 77° |
| 2026-04-25 22:54 | 41.95114 | -85.21046 | 41010 ft | 450 kts | 91° |
| 2026-04-25 22:55 | 41.95079 | -85.12605 | 41010 ft | 458 kts | 91° |
| 2026-04-25 22:55 | 41.95051 | -85.04053 | 41006 ft | 459 kts | 91° |
| 2026-04-25 22:56 | 41.95020 | -84.95518 | 40998 ft | 459 kts | 91° |
| 2026-04-25 22:56 | 41.94981 | -84.86945 | 41004 ft | 460 kts | 90° |
| 2026-04-25 22:57 | 41.94936 | -84.78403 | 41008 ft | 460 kts | 90° |
| 2026-04-25 22:57 | 41.94885 | -84.69802 | 40999 ft | 461 kts | 91° |
| 2026-04-25 22:58 | 41.94827 | -84.61222 | 41005 ft | 461 kts | 91° |
| 2026-04-25 22:58 | 41.94762 | -84.52594 | 41021 ft | 460 kts | 91° |
| 2026-04-25 22:59 | 41.94691 | -84.44057 | 41012 ft | 461 kts | 91° |
| 2026-04-25 22:59 | 41.94615 | -84.35445 | 41000 ft | 462 kts | 91° |
| 2026-04-25 23:00 | 41.94530 | -84.26841 | 40994 ft | 461 kts | 91° |
| 2026-04-25 23:00 | 41.94441 | -84.18296 | 41001 ft | 461 kts | 91° |
| 2026-04-25 23:01 | 41.94345 | -84.09748 | 41008 ft | 461 kts | 91° |
| 2026-04-25 23:01 | 41.94244 | -84.01143 | 41004 ft | 460 kts | 91° |
| 2026-04-25 23:02 | 41.94135 | -83.92570 | 41008 ft | 460 kts | 91° |
| 2026-04-25 23:02 | 41.94019 | -83.84010 | 41009 ft | 459 kts | 91° |
| 2026-04-25 23:03 | 41.93898 | -83.75513 | 41025 ft | 458 kts | 91° |
| 2026-04-25 23:03 | 41.93771 | -83.66945 | 41021 ft | 459 kts | 91° |
| 2026-04-25 23:04 | 41.93638 | -83.58419 | 41013 ft | 460 kts | 91° |
| 2026-04-25 23:04 | 41.93495 | -83.49850 | 41032 ft | 461 kts | 92° |
| 2026-04-25 23:05 | 41.93461 | -83.41251 | 41026 ft | 462 kts | 90° |
| 2026-04-25 23:05 | 41.93427 | -83.32649 | 41015 ft | 463 kts | 91° |
| 2026-04-25 23:06 | 41.93383 | -83.24041 | 40997 ft | 464 kts | 91° |
| 2026-04-25 23:06 | 41.93333 | -83.15364 | 41007 ft | 464 kts | 91° |
| 2026-04-25 23:07 | 41.93277 | -83.06731 | 41017 ft | 464 kts | 91° |
| 2026-04-25 23:07 | 41.93212 | -82.98113 | 41019 ft | 464 kts | 91° |
| 2026-04-25 23:08 | 41.93144 | -82.89502 | 41003 ft | 464 kts | 91° |
| 2026-04-25 23:08 | 41.93068 | -82.80872 | 41004 ft | 464 kts | 91° |
| 2026-04-25 23:09 | 41.92986 | -82.72237 | 41002 ft | 464 kts | 91° |
| 2026-04-25 23:09 | 41.92898 | -82.63603 | 41009 ft | 463 kts | 91° |
| 2026-04-25 23:10 | 41.92804 | -82.54974 | 41012 ft | 464 kts | 91° |
| 2026-04-25 23:10 | 41.92701 | -82.46337 | 41016 ft | 465 kts | 91° |
| 2026-04-25 23:11 | 41.92592 | -82.37653 | 41014 ft | 466 kts | 91° |
| 2026-04-25 23:11 | 41.92477 | -82.29015 | 41003 ft | 466 kts | 92° |
| 2026-04-25 23:12 | 41.92357 | -82.20375 | 41001 ft | 465 kts | 92° |
| 2026-04-25 23:12 | 41.92228 | -82.11684 | 40997 ft | 465 kts | 92° |
| 2026-04-25 23:13 | 41.92094 | -82.03062 | 41000 ft | 465 kts | 92° |
| 2026-04-25 23:13 | 41.91954 | -81.94398 | 41022 ft | 465 kts | 92° |
| 2026-04-25 23:14 | 41.91804 | -81.85727 | 41029 ft | 466 kts | 92° |
| 2026-04-25 23:14 | 41.92421 | -81.77097 | 41021 ft | 468 kts | 81° |
| 2026-04-25 23:15 | 41.93391 | -81.68471 | 41017 ft | 468 kts | 81° |
| 2026-04-25 23:15 | 41.94338 | -81.59907 | 41005 ft | 468 kts | 81° |
| 2026-04-25 23:16 | 41.95285 | -81.51287 | 41003 ft | 467 kts | 81° |
| 2026-04-25 23:16 | 41.96223 | -81.42685 | 41017 ft | 466 kts | 82° |
| 2026-04-25 23:17 | 41.97155 | -81.34070 | 41014 ft | 466 kts | 82° |
| 2026-04-25 23:17 | 41.98077 | -81.25498 | 41020 ft | 467 kts | 82° |
| 2026-04-25 23:18 | 41.98994 | -81.16887 | 41019 ft | 468 kts | 82° |
| 2026-04-25 23:18 | 41.99906 | -81.08270 | 41009 ft | 468 kts | 82° |
| 2026-04-25 23:19 | 42.00821 | -80.99545 | 41007 ft | 469 kts | 82° |
| 2026-04-25 23:19 | 42.01723 | -80.90907 | 41009 ft | 469 kts | 82° |
| 2026-04-25 23:20 | 42.02625 | -80.82201 | 41007 ft | 469 kts | 82° |
| 2026-04-25 23:20 | 42.03515 | -80.73541 | 41001 ft | 469 kts | 82° |
| 2026-04-25 23:21 | 42.04393 | -80.64928 | 41005 ft | 468 kts | 82° |
| 2026-04-25 23:21 | 42.05268 | -80.56271 | 41026 ft | 468 kts | 82° |
| 2026-04-25 23:22 | 42.06138 | -80.47609 | 41034 ft | 468 kts | 82° |
| 2026-04-25 23:23 | 42.07431 | -80.34598 | 41036 ft | 469 kts | 83° |
| 2026-04-25 23:23 | 42.08291 | -80.25884 | 41031 ft | 470 kts | 83° |
| 2026-04-25 23:24 | 42.09138 | -80.17200 | 41028 ft | 470 kts | 83° |
| 2026-04-25 23:24 | 42.09977 | -80.08511 | 41028 ft | 470 kts | 83° |
| 2026-04-25 23:25 | 42.10814 | -79.99824 | 41025 ft | 470 kts | 83° |
| 2026-04-25 23:25 | 42.11645 | -79.91114 | 41030 ft | 470 kts | 83° |
| 2026-04-25 23:26 | 42.12465 | -79.82416 | 41005 ft | 470 kts | 83° |
| 2026-04-25 23:26 | 42.13286 | -79.73662 | 40984 ft | 470 kts | 83° |
| 2026-04-25 23:27 | 42.14097 | -79.64957 | 40979 ft | 471 kts | 83° |
| 2026-04-25 23:27 | 42.14901 | -79.56220 | 40961 ft | 472 kts | 83° |
| 2026-04-25 23:28 | 42.15699 | -79.47503 | 40954 ft | 472 kts | 83° |
| 2026-04-25 23:28 | 42.16494 | -79.38708 | 40955 ft | 472 kts | 83° |
| 2026-04-25 23:29 | 42.17281 | -79.29981 | 40951 ft | 473 kts | 84° |
| 2026-04-25 23:29 | 42.18064 | -79.21166 | 40955 ft | 473 kts | 84° |
| 2026-04-25 23:30 | 42.18837 | -79.12398 | 40947 ft | 473 kts | 83° |
| 2026-04-25 23:30 | 42.19944 | -79.03700 | 40938 ft | 473 kts | 80° |
| 2026-04-25 23:31 | 42.21067 | -78.94991 | 40935 ft | 474 kts | 80° |
| 2026-04-25 23:31 | 42.22178 | -78.86234 | 40929 ft | 475 kts | 80° |
| 2026-04-25 23:32 | 42.23288 | -78.77481 | 40925 ft | 476 kts | 80° |
| 2026-04-25 23:32 | 42.24392 | -78.68707 | 40922 ft | 476 kts | 80° |
| 2026-04-25 23:33 | 42.25494 | -78.59860 | 40920 ft | 477 kts | 80° |
| 2026-04-25 23:33 | 42.26590 | -78.51059 | 40924 ft | 477 kts | 80° |
| 2026-04-25 23:34 | 42.27681 | -78.42220 | 40929 ft | 478 kts | 80° |
| 2026-04-25 23:34 | 42.28758 | -78.33418 | 40929 ft | 478 kts | 81° |
| 2026-04-25 23:35 | 42.29834 | -78.24581 | 40923 ft | 478 kts | 81° |
| 2026-04-25 23:35 | 42.30898 | -78.15757 | 40925 ft | 478 kts | 81° |
| 2026-04-25 23:36 | 42.31964 | -78.06892 | 40933 ft | 478 kts | 81° |
| 2026-04-25 23:36 | 42.33015 | -77.98057 | 40928 ft | 479 kts | 81° |
| 2026-04-25 23:37 | 42.34069 | -77.89182 | 40925 ft | 478 kts | 81° |
| 2026-04-25 23:37 | 42.35105 | -77.80349 | 40928 ft | 478 kts | 81° |
| 2026-04-25 23:38 | 42.36144 | -77.71493 | 40934 ft | 478 kts | 81° |
| 2026-04-25 23:38 | 42.37174 | -77.62596 | 40941 ft | 478 kts | 81° |
| 2026-04-25 23:39 | 42.38195 | -77.53743 | 40941 ft | 479 kts | 81° |
| 2026-04-25 23:39 | 42.39211 | -77.44859 | 40947 ft | 479 kts | 81° |
| 2026-04-25 23:40 | 42.40217 | -77.35994 | 40951 ft | 480 kts | 81° |
| 2026-04-25 23:40 | 42.41226 | -77.27071 | 40949 ft | 480 kts | 82° |
| 2026-04-25 23:41 | 42.42223 | -77.18130 | 40954 ft | 480 kts | 82° |
| 2026-04-25 23:41 | 42.43216 | -77.09220 | 40956 ft | 481 kts | 82° |
| 2026-04-25 23:42 | 42.44197 | -77.00314 | 40970 ft | 480 kts | 82° |
| 2026-04-25 23:42 | 42.45178 | -76.91387 | 40773 ft | 477 kts | 82° |
| 2026-04-25 23:42 | 42.45654 | -76.86990 | 40438 ft | 477 kts | 82° |
| 2026-04-25 23:43 | 42.46141 | -76.82541 | 39882 ft | 482 kts | 83° |
| 2026-04-25 23:43 | 42.46625 | -76.78068 | 39263 ft | 484 kts | 83° |
| 2026-04-25 23:43 | 42.47110 | -76.73570 | 38589 ft | 485 kts | 83° |
| 2026-04-25 23:43 | 42.47593 | -76.69054 | 37896 ft | 485 kts | 83° |
| 2026-04-25 23:44 | 42.48076 | -76.64538 | 37127 ft | 486 kts | 84° |
| 2026-04-25 23:44 | 42.48556 | -76.60012 | 36374 ft | 489 kts | 83° |
| 2026-04-25 23:44 | 42.49034 | -76.55499 | 35808 ft | 491 kts | 83° |
| 2026-04-25 23:44 | 42.49522 | -76.50899 | 35259 ft | 493 kts | 83° |
| 2026-04-25 23:45 | 42.50005 | -76.46299 | 34703 ft | 495 kts | 84° |
| 2026-04-25 23:45 | 42.50493 | -76.41692 | 34102 ft | 496 kts | 84° |
| 2026-04-25 23:45 | 42.50964 | -76.37099 | 33463 ft | 497 kts | 84° |
| 2026-04-25 23:45 | 42.51385 | -76.32467 | 33075 ft | 497 kts | 90° |
| 2026-04-25 23:46 | 42.50973 | -76.27917 | 33027 ft | 486 kts | 109° |
| 2026-04-25 23:46 | 42.49968 | -76.23563 | 32827 ft | 481 kts | 112° |
| 2026-04-25 23:46 | 42.48940 | -76.19302 | 32525 ft | 473 kts | 113° |
| 2026-04-25 23:46 | 42.47906 | -76.15102 | 32093 ft | 468 kts | 113° |
| 2026-04-25 23:47 | 42.46893 | -76.10998 | 31679 ft | 457 kts | 113° |
| 2026-04-25 23:47 | 42.45898 | -76.06946 | 31283 ft | 447 kts | 112° |
| 2026-04-25 23:47 | 42.44940 | -76.03053 | 30882 ft | 436 kts | 114° |
| 2026-04-25 23:47 | 42.43998 | -75.99222 | 30518 ft | 425 kts | 112° |
| 2026-04-25 23:48 | 42.43060 | -75.95477 | 30043 ft | 416 kts | 112° |
| 2026-04-25 23:48 | 42.42156 | -75.91823 | 29670 ft | 407 kts | 112° |
| 2026-04-25 23:48 | 42.41274 | -75.88219 | 29365 ft | 400 kts | 112° |
| 2026-04-25 23:48 | 42.40393 | -75.84684 | 29101 ft | 393 kts | 112° |
| 2026-04-25 23:49 | 42.39526 | -75.81218 | 28822 ft | 388 kts | 112° |
| 2026-04-25 23:49 | 42.38672 | -75.77795 | 28549 ft | 387 kts | 112° |
| 2026-04-25 23:49 | 42.37812 | -75.74366 | 28302 ft | 388 kts | 112° |
| 2026-04-25 23:49 | 42.36948 | -75.70900 | 28057 ft | 389 kts | 111° |
| 2026-04-25 23:50 | 42.36081 | -75.67422 | 28021 ft | 395 kts | 111° |
| 2026-04-25 23:50 | 42.34302 | -75.60338 | 27985 ft | 404 kts | 111° |
| 2026-04-25 23:50 | 42.33391 | -75.56718 | 27680 ft | 409 kts | 112° |
| 2026-04-25 23:51 | 42.32480 | -75.53114 | 27280 ft | 398 kts | 110° |
| 2026-04-25 23:51 | 42.31602 | -75.49618 | 26705 ft | 390 kts | 111° |
| 2026-04-25 23:51 | 42.30748 | -75.46230 | 26174 ft | 384 kts | 111° |
| 2026-04-25 23:51 | 42.29891 | -75.42857 | 25647 ft | 378 kts | 112° |
| 2026-04-25 23:52 | 42.29041 | -75.39505 | 25105 ft | 374 kts | 110° |
| 2026-04-25 23:52 | 42.28211 | -75.36231 | 24617 ft | 370 kts | 110° |
| 2026-04-25 23:52 | 42.27390 | -75.32997 | 24125 ft | 366 kts | 110° |
| 2026-04-25 23:52 | 42.26570 | -75.29748 | 23567 ft | 362 kts | 111° |
| 2026-04-25 23:53 | 42.25754 | -75.26579 | 23005 ft | 359 kts | 111° |
| 2026-04-25 23:53 | 42.24950 | -75.23428 | 22465 ft | 356 kts | 110° |
| 2026-04-25 23:53 | 42.24152 | -75.20307 | 21958 ft | 353 kts | 110° |
| 2026-04-25 23:53 | 42.23352 | -75.17172 | 21448 ft | 351 kts | 110° |
| 2026-04-25 23:54 | 42.22568 | -75.14111 | 20951 ft | 348 kts | 110° |
| 2026-04-25 23:54 | 42.21775 | -75.11015 | 20439 ft | 346 kts | 110° |
| 2026-04-25 23:54 | 42.20996 | -75.07981 | 19931 ft | 344 kts | 110° |
| 2026-04-25 23:54 | 42.20222 | -75.04967 | 19430 ft | 342 kts | 110° |
| 2026-04-25 23:55 | 42.19446 | -75.01957 | 18936 ft | 339 kts | 110° |
| 2026-04-25 23:55 | 42.18684 | -74.99001 | 18536 ft | 334 kts | 110° |
| 2026-04-25 23:55 | 42.17921 | -74.96072 | 18134 ft | 331 kts | 112° |
| 2026-04-25 23:55 | 42.16860 | -74.93345 | 18030 ft | 322 kts | 121° |
| 2026-04-25 23:56 | 42.15778 | -74.90756 | 18006 ft | 317 kts | 121° |
| 2026-04-25 23:56 | 42.14699 | -74.88189 | 18006 ft | 319 kts | 121° |
| 2026-04-25 23:56 | 42.13602 | -74.85568 | 18006 ft | 322 kts | 121° |
| 2026-04-25 23:56 | 42.12485 | -74.82902 | 18005 ft | 327 kts | 121° |
| 2026-04-25 23:57 | 42.11365 | -74.80228 | 18010 ft | 331 kts | 120° |
| 2026-04-25 23:57 | 42.10229 | -74.77510 | 18009 ft | 335 kts | 121° |
| 2026-04-25 23:57 | 42.08785 | -74.75131 | 18025 ft | 332 kts | 136° |
| 2026-04-25 23:57 | 42.07178 | -74.72896 | 18009 ft | 331 kts | 136° |
| 2026-04-25 23:58 | 42.05562 | -74.70695 | 18005 ft | 328 kts | 137° |
| 2026-04-25 23:58 | 42.03970 | -74.68537 | 18005 ft | 326 kts | 137° |
| 2026-04-25 23:58 | 42.02374 | -74.66379 | 18008 ft | 325 kts | 137° |
| 2026-04-25 23:58 | 42.00772 | -74.64224 | 18010 ft | 323 kts | 137° |
| 2026-04-25 23:59 | 41.99196 | -74.62102 | 18004 ft | 322 kts | 137° |
| 2026-04-25 23:59 | 41.97621 | -74.59982 | 18001 ft | 321 kts | 137° |
| 2026-04-25 23:59 | 41.96035 | -74.57850 | 18005 ft | 323 kts | 137° |
| 2026-04-25 23:59 | 41.94452 | -74.55731 | 18011 ft | 324 kts | 137° |
| 2026-04-26 00:00 | 41.92851 | -74.53578 | 18002 ft | 326 kts | 137° |
| 2026-04-26 00:00 | 41.91241 | -74.51421 | 17918 ft | 325 kts | 136° |
| 2026-04-26 00:00 | 41.89652 | -74.49293 | 17723 ft | 319 kts | 137° |
| 2026-04-26 00:00 | 41.88086 | -74.47199 | 17370 ft | 320 kts | 137° |
| 2026-04-26 00:01 | 41.86521 | -74.45098 | 17010 ft | 320 kts | 137° |
| 2026-04-26 00:01 | 41.84958 | -74.43009 | 16653 ft | 319 kts | 137° |
| 2026-04-26 00:01 | 41.83384 | -74.40910 | 16287 ft | 316 kts | 139° |
| 2026-04-26 00:01 | 41.81841 | -74.38843 | 15917 ft | 314 kts | 138° |
| 2026-04-26 00:02 | 41.80306 | -74.36794 | 15552 ft | 312 kts | 138° |
| 2026-04-26 00:02 | 41.78778 | -74.34768 | 15179 ft | 309 kts | 140° |
| 2026-04-26 00:02 | 41.77263 | -74.32749 | 14778 ft | 308 kts | 139° |
| 2026-04-26 00:02 | 41.75741 | -74.30719 | 14375 ft | 307 kts | 139° |
| 2026-04-26 00:03 | 41.74236 | -74.28724 | 13978 ft | 306 kts | 138° |
| 2026-04-26 00:03 | 41.72735 | -74.26721 | 13581 ft | 305 kts | 139° |
| 2026-04-26 00:03 | 41.71227 | -74.24722 | 13172 ft | 303 kts | 139° |
| 2026-04-26 00:03 | 41.69750 | -74.22755 | 12780 ft | 302 kts | 139° |
| 2026-04-26 00:04 | 41.68264 | -74.20792 | 12384 ft | 300 kts | 139° |
| 2026-04-26 00:04 | 41.66775 | -74.18812 | 11992 ft | 299 kts | 139° |
| 2026-04-26 00:04 | 41.65313 | -74.16876 | 11593 ft | 297 kts | 139° |
| 2026-04-26 00:04 | 41.63847 | -74.14936 | 11194 ft | 295 kts | 140° |
| 2026-04-26 00:05 | 41.62416 | -74.13045 | 10802 ft | 290 kts | 139° |
| 2026-04-26 00:05 | 41.60996 | -74.11166 | 10404 ft | 286 kts | 140° |
| 2026-04-26 00:05 | 41.59590 | -74.09302 | 9996 ft | 283 kts | 140° |
| 2026-04-26 00:05 | 41.58208 | -74.07482 | 9605 ft | 279 kts | 140° |
| 2026-04-26 00:06 | 41.56840 | -74.05679 | 9229 ft | 275 kts | 141° |
| 2026-04-26 00:06 | 41.55491 | -74.03891 | 8851 ft | 269 kts | 141° |
| 2026-04-26 00:06 | 41.54187 | -74.02177 | 8494 ft | 263 kts | 140° |
| 2026-04-26 00:06 | 41.52883 | -74.00474 | 8149 ft | 257 kts | 140° |
| 2026-04-26 00:07 | 41.51632 | -73.98817 | 7806 ft | 253 kts | 140° |
| 2026-04-26 00:07 | 41.50387 | -73.97182 | 7505 ft | 250 kts | 140° |
| 2026-04-26 00:07 | 41.49161 | -73.95572 | 7189 ft | 249 kts | 139° |
| 2026-04-26 00:07 | 41.47923 | -73.93940 | 6881 ft | 247 kts | 139° |
| 2026-04-26 00:08 | 41.46701 | -73.92341 | 6573 ft | 246 kts | 139° |
| 2026-04-26 00:08 | 41.45492 | -73.90740 | 6264 ft | 244 kts | 139° |
| 2026-04-26 00:08 | 41.44293 | -73.89187 | 6050 ft | 239 kts | 139° |
| 2026-04-26 00:08 | 41.43055 | -73.87772 | 6033 ft | 233 kts | 156° |
| 2026-04-26 00:09 | 41.41550 | -73.87071 | 5995 ft | 223 kts | 173° |
| 2026-04-26 00:09 | 41.40061 | -73.86985 | 5878 ft | 209 kts | 181° |
| 2026-04-26 00:09 | 41.38630 | -73.87075 | 5580 ft | 203 kts | 185° |
| 2026-04-26 00:09 | 41.37235 | -73.87225 | 5256 ft | 197 kts | 184° |
| 2026-04-26 00:10 | 41.35902 | -73.87393 | 4987 ft | 191 kts | 184° |
| 2026-04-26 00:10 | 41.34580 | -73.87566 | 4726 ft | 187 kts | 183° |
| 2026-04-26 00:10 | 41.33303 | -73.87738 | 4482 ft | 183 kts | 183° |
| 2026-04-26 00:10 | 41.32061 | -73.87902 | 4248 ft | 179 kts | 182° |
| 2026-04-26 00:11 | 41.30829 | -73.88067 | 4016 ft | 176 kts | 181° |
| 2026-04-26 00:11 | 41.29625 | -73.88145 | 3769 ft | 170 kts | 165° |
| 2026-04-26 00:11 | 41.28590 | -73.87465 | 3574 ft | 162 kts | 145° |
| 2026-04-26 00:11 | 41.27638 | -73.86709 | 3369 ft | 160 kts | 147° |
| 2026-04-26 00:12 | 41.26699 | -73.85977 | 3187 ft | 154 kts | 146° |
| 2026-04-26 00:12 | 41.25778 | -73.85274 | 2982 ft | 151 kts | 146° |
| 2026-04-26 00:12 | 41.24870 | -73.84581 | 2765 ft | 149 kts | 146° |
| 2026-04-26 00:12 | 41.23976 | -73.83893 | 2576 ft | 146 kts | 145° |
| 2026-04-26 00:13 | 41.23112 | -73.83225 | 2389 ft | 143 kts | 145° |
| 2026-04-26 00:13 | 41.22260 | -73.82565 | 2209 ft | 139 kts | 144° |
| 2026-04-26 00:13 | 41.21442 | -73.81918 | 2042 ft | 139 kts | 144° |
| 2026-04-26 00:13 | 41.20610 | -73.81255 | 2011 ft | 140 kts | 147° |
| 2026-04-26 00:14 | 41.19750 | -73.80626 | 1989 ft | 139 kts | 146° |
| 2026-04-26 00:14 | 41.18915 | -73.79985 | 2010 ft | 137 kts | 146° |
| 2026-04-26 00:14 | 41.18093 | -73.79359 | 1988 ft | 137 kts | 146° |
| 2026-04-26 00:14 | 41.17263 | -73.78732 | 2009 ft | 137 kts | 147° |
| 2026-04-26 00:15 | 41.16413 | -73.78106 | 1992 ft | 139 kts | 145° |
| 2026-04-26 00:15 | 41.15594 | -73.77428 | 2013 ft | 141 kts | 146° |
| 2026-04-26 00:15 | 41.14756 | -73.76830 | 2017 ft | 126 kts | 150° |
| 2026-04-26 00:15 | 41.14055 | -73.76269 | 1935 ft | 108 kts | 145° |
| 2026-04-26 00:16 | 41.13420 | -73.75755 | 1805 ft | 107 kts | 146° |
| 2026-04-26 00:16 | 41.12780 | -73.75257 | 1638 ft | 106 kts | 144° |
| 2026-04-26 00:16 | 41.12134 | -73.74785 | 1514 ft | 107 kts | 149° |
| 2026-04-26 00:16 | 41.11484 | -73.74333 | 1364 ft | 104 kts | 147° |
| 2026-04-26 00:17 | 41.10862 | -73.73843 | 1238 ft | 102 kts | 144° |
| 2026-04-26 00:17 | 41.10247 | -73.73367 | 1099 ft | 104 kts | 146° |
| 2026-04-26 00:17 | 41.09620 | -73.72881 | 961 ft | 106 kts | 147° |
| 2026-04-26 00:17 | 41.08975 | -73.72403 | 810 ft | 104 kts | 148° |
| 2026-04-26 00:18 | 41.08345 | -73.71930 | 667 ft | 104 kts | 147° |
| 2026-04-26 00:18 | 41.07717 | -73.71458 | 508 ft | 104 kts | 147° |
| 2026-04-26 00:18 | 41.07118 | -73.70998 | 412 ft | 91 kts | 149° |
| 2026-04-26 00:18 | 41.06714 | -73.70686 | 398 ft | 43 kts | 148° |
| 2026-04-26 00:19 | 41.06545 | -73.70553 | 389 ft | 19 kts | 136° |
| 2026-04-26 00:19 | 41.06512 | -73.70393 | 387 ft | 13 kts | 91° |
| 2026-04-26 00:19 | 41.06553 | -73.70348 | 388 ft | 8 kts | 331° |
| 2026-04-26 00:19 | 41.06619 | -73.70399 | 391 ft | 14 kts | 330° |
| 2026-04-26 00:20 | 41.06711 | -73.70470 | 396 ft | 14 kts | 330° |
| 2026-04-26 00:20 | 41.06791 | -73.70531 | 400 ft | 13 kts | 330° |
| 2026-04-26 00:20 | 41.06886 | -73.70603 | 404 ft | 16 kts | 329° |
| 2026-04-26 00:20 | 41.06979 | -73.70673 | 409 ft | 14 kts | 331° |
| 2026-04-26 00:21 | 41.07062 | -73.70738 | 411 ft | 13 kts | 330° |
| 2026-04-26 00:21 | 41.07143 | -73.70798 | 413 ft | 13 kts | 332° |
| 2026-04-26 00:21 | 41.07194 | -73.70826 | 415 ft | 1 kts | 56° |
| 2026-04-26 00:21 | 41.07183 | -73.70812 | 415 ft | 4 kts | 148° |
| 2026-04-26 00:22 | 41.07149 | -73.70773 | 414 ft | 8 kts | 126° |
| 2026-04-26 00:22 | 41.07120 | -73.70722 | 414 ft | 4 kts | 149° |
| 2026-04-26 00:22 | 41.07117 | -73.70721 | 414 ft | 0 kts | 150° |